Time;durP1;ratioP1;P1;durP2;ratioP2;P2;SDS_P1;SDS_P2;PMS_P1;PMS_P2;Temp;Humidity;BMP_temperature;BMP_pressure;BME280_temperature;BME280_humidity;BME280_pressure;Samples;Min_cycle;Max_cycle;Signal;HPM_P1;HPM_P2
2023/02/13 00:02:19;;;;;;;6.40;1.80;;;;;;;;;;5067795;28;20044;-63
2023/02/13 00:04:49;;;;;;;3.25;1.55;;;;;;;;;;5051309;28;20052;-63
2023/02/13 00:07:19;;;;;;;3.50;1.50;;;;;;;;;;5067755;28;20071;-63
2023/02/13 00:09:49;;;;;;;7.18;1.50;;;;;;;;;;5050603;28;20045;-63
2023/02/13 00:12:19;;;;;;;10.82;1.95;;;;;;;;;;5050824;28;20140;-63
2023/02/13 00:14:49;;;;;;;8.15;1.58;;;;;;;;;;5067300;28;20049;-63
2023/02/13 00:17:19;;;;;;;6.32;1.75;;;;;;;;;;5051207;28;20102;-63
2023/02/13 00:19:50;;;;;;;5.82;1.95;;;;;;;;;;5001201;28;20500;-62
2023/02/13 00:22:21;;;;;;;8.95;1.70;;;;;;;;;;5067395;28;20083;-62
2023/02/13 00:24:51;;;;;;;5.35;1.73;;;;;;;;;;5034264;28;20385;-63
2023/02/13 00:27:21;;;;;;;10.38;1.70;;;;;;;;;;5035532;28;20606;-63
2023/02/13 00:29:51;;;;;;;10.95;1.95;;;;;;;;;;5016158;28;20647;-62
2023/02/13 00:32:21;;;;;;;5.25;1.60;;;;;;;;;;5064028;28;20424;-65
2023/02/13 00:34:55;;;;;;;10.85;1.83;;;;;;;;;;5031146;28;20069;-63
2023/02/13 00:37:25;;;;;;;8.70;2.08;;;;;;;;;;4999127;28;20053;-63
2023/02/13 00:39:56;;;;;;;12.73;1.95;;;;;;;;;;5012007;28;21236;-63
2023/02/13 00:42:26;;;;;;;4.90;1.80;;;;;;;;;;5011246;28;20057;-63
2023/02/13 00:44:56;;;;;;;4.40;1.75;;;;;;;;;;5011274;28;20062;-63
2023/02/13 00:47:27;;;;;;;6.63;1.88;;;;;;;;;;4994899;28;20054;-63
2023/02/13 00:49:57;;;;;;;3.92;1.70;;;;;;;;;;4994897;28;20065;-63
2023/02/13 00:52:27;;;;;;;13.88;2.28;;;;;;;;;;4962429;28;20060;-65
2023/02/13 00:54:57;;;;;;;6.70;2.00;;;;;;;;;;5010845;28;20437;-64
2023/02/13 00:57:29;;;;;;;5.95;1.60;;;;;;;;;;5011263;28;20529;-63
2023/02/13 00:59:59;;;;;;;6.07;1.98;;;;;;;;;;4978309;28;20164;-63
2023/02/13 01:02:30;;;;;;;11.25;2.67;;;;;;;;;;4991356;28;20046;-63
2023/02/13 01:05:00;;;;;;;4.40;1.83;;;;;;;;;;4952273;28;20124;-63
2023/02/13 01:07:30;;;;;;;7.90;2.40;;;;;;;;;;4962004;28;20051;-63
2023/02/13 01:10:01;;;;;;;4.55;1.60;;;;;;;;;;4990818;28;20057;-63
2023/02/13 01:12:31;;;;;;;4.47;1.65;;;;;;;;;;4958788;28;20536;-63
2023/02/13 01:15:01;;;;;;;3.72;1.80;;;;;;;;;;4990357;28;20198;-64
2023/02/13 01:17:31;;;;;;;5.88;1.92;;;;;;;;;;5000294;28;20065;-63
2023/02/13 01:20:01;;;;;;;10.77;2.50;;;;;;;;;;5010491;28;20185;-63
2023/02/13 01:22:31;;;;;;;4.72;1.73;;;;;;;;;;5010636;28;20047;-63
2023/02/13 01:25:02;;;;;;;7.45;2.13;;;;;;;;;;4990633;28;20399;-63
2023/02/13 01:27:33;;;;;;;5.63;2.47;;;;;;;;;;4977608;28;20047;-63
2023/02/13 01:30:09;;;;;;;4.75;2.25;;;;;;;;;;5010003;28;20053;-63
2023/02/13 01:32:42;;;;;;;4.63;1.95;;;;;;;;;;4964365;28;20096;-64
2023/02/13 01:35:14;;;;;;;7.35;2.38;;;;;;;;;;4977463;28;20050;-63
2023/02/13 01:37:44;;;;;;;3.50;2.00;;;;;;;;;;4999695;28;20057;-64
2023/02/13 01:40:16;;;;;;;6.38;2.22;;;;;;;;;;4988147;28;20050;-63
2023/02/13 01:42:46;;;;;;;5.47;1.80;;;;;;;;;;4968346;28;20058;-64
2023/02/13 01:45:23;;;;;;;6.75;1.98;;;;;;;;;;4941553;28;20514;-64
2023/02/13 01:48:10;;;;;;;4.72;2.08;;;;;;;;;;4969731;28;20053;-63
2023/02/13 01:50:49;;;;;;;6.68;1.88;;;;;;;;;;4990666;28;20074;-63
2023/02/13 01:53:37;;;;;;;6.15;2.10;;;;;;;;;;4970873;28;20076;-62
2023/02/13 01:56:19;;;;;;;4.90;2.15;;;;;;;;;;4931654;29;20055;-63
2023/02/13 01:58:55;;;;;;;5.60;2.10;;;;;;;;;;4892456;29;20509;-64
2023/02/13 02:01:27;;;;;;;6.30;1.92;;;;;;;;;;4877867;29;20525;-65
2023/02/13 02:04:05;;;;;;;7.18;2.47;;;;;;;;;;4911888;29;20044;-63
2023/02/13 02:06:40;;;;;;;10.25;2.78;;;;;;;;;;4877718;29;20053;-63
2023/02/13 02:09:17;;;;;;;6.00;2.33;;;;;;;;;;4873779;29;20067;-63
2023/02/13 02:12:12;;;;;;;5.43;2.40;;;;;;;;;;4874587;29;20053;-63
2023/02/13 02:14:43;;;;;;;6.85;2.17;;;;;;;;;;4837524;29;20065;-63
2023/02/13 02:17:14;;;;;;;6.68;2.20;;;;;;;;;;4837934;29;20459;-63
2023/02/13 02:20:09;;;;;;;9.57;2.22;;;;;;;;;;4808294;29;20069;-63
2023/02/13 02:22:48;;;;;;;6.25;2.08;;;;;;;;;;4838606;29;20065;-63
2023/02/13 02:25:50;;;;;;;4.07;1.90;;;;;;;;;;4838203;29;20535;-63
2023/02/13 02:29:04;;;;;;;6.28;1.98;;;;;;;;;;4856307;29;20067;-64
2023/02/13 02:31:58;;;;;;;5.72;2.05;;;;;;;;;;4855825;29;20093;-64
2023/02/13 02:35:02;;;;;;;11.02;2.00;;;;;;;;;;4889085;29;20048;-66
2023/02/13 02:37:45;;;;;;;7.93;1.90;;;;;;;;;;4829072;29;20065;-63
2023/02/13 02:40:30;;;;;;;4.53;2.17;;;;;;;;;;4892826;29;20052;-63
2023/02/13 02:43:18;;;;;;;8.85;2.47;;;;;;;;;;4928149;29;20070;-66
2023/02/13 02:46:03;;;;;;;8.70;2.00;;;;;;;;;;4894532;29;20118;-65
2023/02/13 02:51:58;;;;;;;6.20;2.50;;;;;;;;;;4887118;29;20054;-64
2023/02/13 03:06:34;;;;;;;10.15;2.17;;;;;;;;;;4869206;29;20061;-66
2023/02/13 03:14:48;;;;;;;3.83;1.90;;;;;;;;;;4893362;29;20068;-63
2023/02/13 03:23:41;;;;;;;6.28;2.40;;;;;;;;;;4917459;28;20062;-64
2023/02/13 03:26:49;;;;;;;4.15;2.20;;;;;;;;;;4949776;29;20051;-63
2023/02/13 03:32:32;;;;;;;4.40;2.05;;;;;;;;;;4969450;28;20051;-63
2023/02/13 03:38:40;;;;;;;7.88;2.05;;;;;;;;;;4983388;28;20537;-63
2023/02/13 03:41:24;;;;;;;10.50;2.42;;;;;;;;;;4968879;28;20069;-63
2023/02/13 03:44:14;;;;;;;4.47;1.77;;;;;;;;;;4969171;28;20062;-63
2023/02/13 03:46:47;;;;;;;6.40;2.15;;;;;;;;;;4969377;28;20059;-63
2023/02/13 03:52:21;;;;;;;6.68;2.17;;;;;;;;;;4953272;28;20055;-63
2023/02/13 04:00:56;;;;;;;4.63;2.33;;;;;;;;;;4970212;28;20062;-63
2023/02/13 04:03:30;;;;;;;6.25;2.42;;;;;;;;;;4972488;28;20052;-63
2023/02/13 04:06:14;;;;;;;5.03;2.35;;;;;;;;;;4992289;28;20057;-63
2023/02/13 04:08:44;;;;;;;9.60;2.42;;;;;;;;;;4960316;28;20054;-63
2023/02/13 04:11:17;;;;;;;6.75;2.50;;;;;;;;;;4975951;28;20057;-63
2023/02/13 04:13:54;;;;;;;6.40;2.65;;;;;;;;;;4944384;28;20051;-63
2023/02/13 04:16:32;;;;;;;4.78;2.25;;;;;;;;;;4992628;28;20546;-63
2023/02/13 04:19:04;;;;;;;5.38;2.45;;;;;;;;;;5037327;28;20064;-63
2023/02/13 04:21:35;;;;;;;9.23;2.50;;;;;;;;;;5051330;28;20044;-63
2023/02/13 04:24:06;;;;;;;5.95;2.20;;;;;;;;;;5051453;28;20068;-63
2023/02/13 04:26:40;;;;;;;4.05;2.20;;;;;;;;;;5051400;28;20607;-63
2023/02/13 04:29:10;;;;;;;7.03;2.10;;;;;;;;;;5019595;28;20053;-63
2023/02/13 04:31:40;;;;;;;7.55;2.83;;;;;;;;;;5051449;28;20060;-63
2023/02/13 04:34:10;;;;;;;4.53;2.22;;;;;;;;;;5051563;28;20049;-63
2023/02/13 04:36:40;;;;;;;6.68;1.80;;;;;;;;;;5051170;28;20061;-63
2023/02/13 04:39:11;;;;;;;5.25;2.13;;;;;;;;;;5051356;28;20160;-63
2023/02/13 04:41:41;;;;;;;6.93;2.05;;;;;;;;;;5050680;28;20075;-63
2023/02/13 04:44:11;;;;;;;4.55;1.88;;;;;;;;;;5067532;28;20055;-63
2023/02/13 04:46:41;;;;;;;4.70;2.22;;;;;;;;;;5073372;28;20043;-64
2023/02/13 04:49:11;;;;;;;5.25;2.03;;;;;;;;;;5055368;28;20083;-63
2023/02/13 04:51:41;;;;;;;6.80;2.30;;;;;;;;;;5055180;28;20056;-63
2023/02/13 04:54:11;;;;;;;7.10;2.33;;;;;;;;;;5073608;28;20037;-64
2023/02/13 04:56:42;;;;;;;8.02;2.40;;;;;;;;;;5073421;28;20059;-64
2023/02/13 04:59:12;;;;;;;4.90;2.10;;;;;;;;;;5073473;28;20040;-63
2023/02/13 05:01:42;;;;;;;6.20;2.22;;;;;;;;;;5070443;28;20056;-63
2023/02/13 05:04:15;;;;;;;5.78;2.00;;;;;;;;;;5070342;28;20160;-62
2023/02/13 05:06:45;;;;;;;5.57;2.10;;;;;;;;;;5070673;28;20056;-64
2023/02/13 05:09:15;;;;;;;6.82;2.20;;;;;;;;;;5020592;28;20052;-63
2023/02/13 05:11:45;;;;;;;5.38;1.90;;;;;;;;;;5070559;28;20052;-63
2023/02/13 05:14:15;;;;;;;5.32;2.30;;;;;;;;;;5052798;28;20058;-63
2023/02/13 05:16:45;;;;;;;6.63;2.20;;;;;;;;;;5070523;28;20059;-63
2023/02/13 05:19:16;;;;;;;6.53;2.15;;;;;;;;;;5054112;28;20051;-64
2023/02/13 05:24:34;;;;;;;10.20;2.25;;;;;;;;;;5056706;28;20061;-62
2023/02/13 05:27:05;;;;;;;5.30;2.15;;;;;;;;;;5070096;28;20048;-63
2023/02/13 05:29:34;;;;;;;5.45;2.50;;;;;;;;;;5053024;28;20449;-63
2023/02/13 05:32:04;;;;;;;6.07;2.33;;;;;;;;;;5070187;28;20063;-63
2023/02/13 05:34:35;;;;;;;5.05;2.00;;;;;;;;;;5037671;28;20056;-63
2023/02/13 05:37:05;;;;;;;5.78;2.22;;;;;;;;;;5036820;28;20056;-64
2023/02/13 05:39:35;;;;;;;4.25;2.20;;;;;;;;;;5020211;28;20053;-63
2023/02/13 05:42:05;;;;;;;4.13;2.33;;;;;;;;;;5019712;28;20064;-64
2023/02/13 05:44:35;;;;;;;4.35;2.17;;;;;;;;;;5070100;28;20049;-63
2023/02/13 05:47:05;;;;;;;6.25;1.85;;;;;;;;;;5071300;28;20053;-65
2023/02/13 05:49:35;;;;;;;5.53;1.80;;;;;;;;;;5037123;28;20057;-63
2023/02/13 05:52:07;;;;;;;4.15;2.25;;;;;;;;;;5053519;28;20067;-63
2023/02/13 05:54:38;;;;;;;7.00;1.85;;;;;;;;;;5052287;28;20049;-63
2023/02/13 05:57:08;;;;;;;4.18;1.90;;;;;;;;;;5072549;28;20052;-64
2023/02/13 05:59:38;;;;;;;8.75;2.30;;;;;;;;;;5072265;28;20055;-64
2023/02/13 06:02:08;;;;;;;4.53;2.10;;;;;;;;;;5072231;28;20500;-63
2023/02/13 06:04:40;;;;;;;5.20;2.40;;;;;;;;;;5087607;28;20388;-63
2023/02/13 06:07:10;;;;;;;4.50;2.00;;;;;;;;;;5019720;28;20519;-63
2023/02/13 06:09:39;;;;;;;8.65;2.58;;;;;;;;;;5053147;28;20061;-63
2023/02/13 06:12:10;;;;;;;5.95;2.15;;;;;;;;;;5053020;28;20071;-64
2023/02/13 06:14:39;;;;;;;8.70;2.42;;;;;;;;;;5053122;28;20135;-63
2023/02/13 06:17:09;;;;;;;4.90;2.08;;;;;;;;;;5029474;28;20065;-63
2023/02/13 06:19:40;;;;;;;4.32;2.03;;;;;;;;;;5029357;28;20053;-63
2023/02/13 06:22:09;;;;;;;6.25;2.45;;;;;;;;;;4996601;28;20448;-63
2023/02/13 06:24:39;;;;;;;5.85;2.55;;;;;;;;;;5029120;28;20046;-63
2023/02/13 06:27:09;;;;;;;7.22;2.28;;;;;;;;;;5029361;28;20065;-62
2023/02/13 06:29:39;;;;;;;5.38;2.25;;;;;;;;;;4997044;28;20064;-63
2023/02/13 06:32:09;;;;;;;5.80;2.33;;;;;;;;;;5029357;28;20545;-63
2023/02/13 06:34:39;;;;;;;6.30;2.40;;;;;;;;;;4981494;28;20064;-63
2023/02/13 06:37:09;;;;;;;8.15;2.47;;;;;;;;;;5029177;28;20136;-63
2023/02/13 06:39:39;;;;;;;5.20;2.15;;;;;;;;;;5028916;28;20157;-63
2023/02/13 06:42:09;;;;;;;4.97;2.25;;;;;;;;;;4970006;28;20058;-63
2023/02/13 06:44:39;;;;;;;5.45;2.47;;;;;;;;;;4970187;28;20063;-63
2023/02/13 06:47:10;;;;;;;6.32;2.40;;;;;;;;;;4987030;28;20051;-63
2023/02/13 06:49:40;;;;;;;6.38;2.70;;;;;;;;;;4996083;28;20057;-63
2023/02/13 06:52:09;;;;;;;7.05;2.25;;;;;;;;;;5011928;28;20147;-63
2023/02/13 06:54:39;;;;;;;6.13;2.40;;;;;;;;;;5028743;28;20053;-63
2023/02/13 06:57:15;;;;;;;5.95;2.33;;;;;;;;;;5013497;28;20062;-63
2023/02/13 06:59:45;;;;;;;7.63;2.47;;;;;;;;;;5028685;28;20401;-63
2023/02/13 07:02:15;;;;;;;6.18;2.45;;;;;;;;;;5028654;28;20056;-62
2023/02/13 07:04:45;;;;;;;5.93;2.55;;;;;;;;;;5028816;28;20049;-62
2023/02/13 07:07:16;;;;;;;4.90;2.28;;;;;;;;;;5028719;28;20056;-63
2023/02/13 07:09:46;;;;;;;5.50;2.45;;;;;;;;;;5027487;28;20052;-62
2023/02/13 07:12:16;;;;;;;5.53;2.40;;;;;;;;;;5028795;28;20104;-62
2023/02/13 07:14:46;;;;;;;7.85;2.38;;;;;;;;;;5028314;28;20045;-63
2023/02/13 07:17:16;;;;;;;7.50;2.28;;;;;;;;;;5028473;28;20053;-62
2023/02/13 07:19:46;;;;;;;6.30;2.63;;;;;;;;;;5050166;28;20052;-62
2023/02/13 07:22:16;;;;;;;6.53;2.75;;;;;;;;;;5019429;28;20063;-62
2023/02/13 07:24:46;;;;;;;5.72;2.60;;;;;;;;;;5020190;28;20060;-63
2023/02/13 07:27:16;;;;;;;5.78;2.35;;;;;;;;;;5070857;28;20041;-63
2023/02/13 07:29:46;;;;;;;5.35;2.28;;;;;;;;;;5084991;28;20411;-65
2023/02/13 07:32:16;;;;;;;7.25;2.80;;;;;;;;;;5056235;28;20385;-62
2023/02/13 07:34:46;;;;;;;6.07;2.30;;;;;;;;;;5038596;28;20063;-63
2023/02/13 07:37:32;;;;;;;5.70;2.15;;;;;;;;;;5047488;28;20060;-63
2023/02/13 07:40:04;;;;;;;7.15;2.40;;;;;;;;;;5047897;28;20041;-62
2023/02/13 07:42:34;;;;;;;9.05;2.42;;;;;;;;;;5047529;28;20053;-63
2023/02/13 07:45:06;;;;;;;6.78;2.60;;;;;;;;;;5027922;28;20053;-63
2023/02/13 07:47:36;;;;;;;4.80;2.25;;;;;;;;;;5011729;28;20045;-62
2023/02/13 07:50:08;;;;;;;6.88;2.60;;;;;;;;;;5027976;28;20053;-61
2023/02/13 07:52:38;;;;;;;5.53;2.60;;;;;;;;;;4995258;28;20390;-62
2023/02/13 07:55:10;;;;;;;6.30;2.33;;;;;;;;;;5028146;28;20505;-62
2023/02/13 07:57:40;;;;;;;5.68;2.28;;;;;;;;;;5028160;28;20058;-63
2023/02/13 08:00:11;;;;;;;8.38;2.72;;;;;;;;;;4988300;28;20054;-62
2023/02/13 08:02:41;;;;;;;5.47;2.58;;;;;;;;;;4956251;28;20051;-62
2023/02/13 08:05:11;;;;;;;6.65;3.00;;;;;;;;;;4988638;28;20525;-62
2023/02/13 08:07:41;;;;;;;6.13;2.50;;;;;;;;;;4988246;28;20502;-62
2023/02/13 08:13:01;;;;;;;6.65;2.55;;;;;;;;;;4988483;28;20058;-62
2023/02/13 08:15:32;;;;;;;4.97;2.40;;;;;;;;;;4998551;28;20053;-63
2023/02/13 08:18:02;;;;;;;7.68;3.00;;;;;;;;;;4995269;28;20454;-62
2023/02/13 08:20:32;;;;;;;8.32;2.28;;;;;;;;;;4995101;28;20050;-62
2023/02/13 08:23:07;;;;;;;8.35;2.63;;;;;;;;;;5007219;28;20413;-63
2023/02/13 08:25:38;;;;;;;5.90;2.65;;;;;;;;;;5014140;28;20041;-63
2023/02/13 08:28:09;;;;;;;7.20;2.45;;;;;;;;;;5030672;28;20049;-62
2023/02/13 08:30:39;;;;;;;5.25;2.20;;;;;;;;;;4998193;28;20049;-62
2023/02/13 08:33:09;;;;;;;6.60;2.33;;;;;;;;;;4999160;28;20060;-63
2023/02/13 08:35:40;;;;;;;5.65;2.13;;;;;;;;;;4997794;28;20068;-63
2023/02/13 08:38:10;;;;;;;4.13;2.13;;;;;;;;;;5041009;28;20419;-62
2023/02/13 08:40:40;;;;;;;4.97;2.10;;;;;;;;;;5015016;28;20056;-63
2023/02/13 08:43:10;;;;;;;4.90;2.45;;;;;;;;;;5030554;28;20157;-63
2023/02/13 08:45:40;;;;;;;6.03;2.45;;;;;;;;;;5047577;28;20052;-62
2023/02/13 08:48:11;;;;;;;6.18;2.45;;;;;;;;;;5028249;28;20061;-63
2023/02/13 08:50:41;;;;;;;5.53;2.40;;;;;;;;;;5031028;28;20049;-63
2023/02/13 08:53:11;;;;;;;6.20;2.33;;;;;;;;;;5014451;28;20057;-63
2023/02/13 08:55:40;;;;;;;5.20;2.42;;;;;;;;;;5014293;28;20062;-63
2023/02/13 08:58:11;;;;;;;6.25;2.55;;;;;;;;;;5010954;28;20061;-62
2023/02/13 09:00:41;;;;;;;8.52;2.90;;;;;;;;;;4994663;28;20169;-66
2023/02/13 09:03:11;;;;;;;6.22;3.05;;;;;;;;;;4978317;28;21216;-64
2023/02/13 09:05:41;;;;;;;7.65;2.63;;;;;;;;;;4978664;28;20069;-64
2023/02/13 09:08:13;;;;;;;7.20;2.67;;;;;;;;;;5010867;28;20065;-63
2023/02/13 09:10:46;;;;;;;8.55;2.35;;;;;;;;;;4995300;28;20077;-63
2023/02/13 09:13:16;;;;;;;7.43;2.55;;;;;;;;;;5011150;28;20058;-63
2023/02/13 09:15:46;;;;;;;8.02;2.45;;;;;;;;;;5010822;28;20497;-63
2023/02/13 09:18:16;;;;;;;5.60;2.42;;;;;;;;;;5029562;28;20057;-64
2023/02/13 09:20:46;;;;;;;4.88;2.13;;;;;;;;;;5050298;28;20037;-64
2023/02/13 09:23:16;;;;;;;9.52;2.60;;;;;;;;;;5050251;28;20049;-64
2023/02/13 09:25:46;;;;;;;7.72;2.40;;;;;;;;;;5059761;28;20061;-64
2023/02/13 09:28:16;;;;;;;6.85;2.67;;;;;;;;;;5071426;28;20044;-63
2023/02/13 09:30:47;;;;;;;12.73;3.22;;;;;;;;;;5093153;28;20051;-63
2023/02/13 09:33:18;;;;;;;12.05;2.47;;;;;;;;;;5074008;28;20063;-64
2023/02/13 09:35:48;;;;;;;7.90;2.17;;;;;;;;;;5049961;28;20548;-63
2023/02/13 09:38:18;;;;;;;6.55;2.42;;;;;;;;;;5016735;28;20045;-63
2023/02/13 09:40:55;;;;;;;6.85;3.30;;;;;;;;;;5049829;28;20453;-63
2023/02/13 09:43:34;;;;;;;10.55;2.42;;;;;;;;;;5050163;28;20036;-64
2023/02/13 09:46:18;;;;;;;6.25;3.03;;;;;;;;;;5050144;28;20071;-63
2023/02/13 09:48:52;;;;;;;7.05;3.03;;;;;;;;;;4987715;28;20508;-63
2023/02/13 09:51:25;;;;;;;8.18;2.97;;;;;;;;;;5049875;28;20048;-63
2023/02/13 09:53:59;;;;;;;;;;;;;;;;;;5049864;28;20052;-63
2023/02/13 09:56:53;;;;;;;7.68;2.80;;;;;;;;;;5032967;28;19928;-63
2023/02/13 09:59:57;;;;;;;6.05;2.97;;;;;;;;;;5049073;28;20516;-63
2023/02/13 10:02:27;;;;;;;;;;;;;;;;;;5050018;28;20067;-63
2023/02/13 10:05:21;;;;;;;8.15;3.00;;;;;;;;;;5016358;28;19928;-63
2023/02/13 10:08:28;;;;;;;7.35;3.80;;;;;;;;;;5032573;28;20049;-63
2023/02/13 10:11:16;;;;;;;8.93;3.92;;;;;;;;;;5049526;28;20493;-64
2023/02/13 10:13:56;;;;;;;11.07;3.50;;;;;;;;;;5044858;28;20056;-62
2023/02/13 10:16:59;;;;;;;8.05;3.53;;;;;;;;;;5069322;28;20188;-65
2023/02/13 10:19:42;;;;;;;8.02;4.35;;;;;;;;;;5017108;28;20040;-63
2023/02/13 10:22:52;;;;;;;12.00;3.90;;;;;;;;;;4999983;28;20064;-63
2023/02/13 10:25:29;;;;;;;7.80;3.90;;;;;;;;;;4989791;28;20059;-63
2023/02/13 10:28:06;;;;;;;11.95;4.72;;;;;;;;;;4941308;28;20509;-64
2023/02/13 10:30:47;;;;;;;10.73;5.30;;;;;;;;;;4989402;28;20438;-62
2023/02/13 10:33:36;;;;;;;13.48;5.35;;;;;;;;;;4989776;28;20406;-64
2023/02/13 10:36:36;;;;;;;12.10;5.10;;;;;;;;;;4941386;28;20050;-65
2023/02/13 10:39:06;;;;;;;10.15;4.30;;;;;;;;;;4989881;28;20050;-64
2023/02/13 10:42:12;;;;;;;10.50;4.32;;;;;;;;;;4989513;28;20050;-64
2023/02/13 10:45:22;;;;;;;7.80;3.65;;;;;;;;;;4989674;28;20058;-64
2023/02/13 10:48:06;;;;;;;10.50;3.33;;;;;;;;;;4989812;28;20065;-64
2023/02/13 10:50:51;;;;;;;9.60;3.67;;;;;;;;;;4989629;28;20522;-64
2023/02/13 10:53:37;;;;;;;4.53;1.70;;;;;;;;;;5008984;28;20050;-65
2023/02/13 10:56:19;;;;;;;5.95;2.10;;;;;;;;;;4969431;28;20580;-64
2023/02/13 10:59:14;;;;;;;4.15;1.60;;;;;;;;;;4988667;28;20860;-64
2023/02/13 11:01:44;;;;;;;4.78;1.85;;;;;;;;;;5008011;28;20049;-64
2023/02/13 11:04:18;;;;;;;3.17;1.60;;;;;;;;;;5088621;28;20056;-63
2023/02/13 11:06:58;;;;;;;4.72;1.60;;;;;;;;;;5054789;28;20048;-63
2023/02/13 11:09:37;;;;;;;4.10;1.27;;;;;;;;;;5088774;28;20060;-65
2023/02/13 11:12:30;;;;;;;4.68;1.25;;;;;;;;;;5037070;28;20059;-64
2023/02/13 11:15:06;;;;;;;4.30;1.92;;;;;;;;;;5069440;28;20455;-65
2023/02/13 11:17:40;;;;;;;2.67;1.33;;;;;;;;;;5037743;28;20055;-66
2023/02/13 11:20:33;;;;;;;3.00;1.20;;;;;;;;;;5087351;28;20047;-64
2023/02/13 11:23:31;;;;;;;3.30;1.00;;;;;;;;;;5037557;28;21133;-65
2023/02/13 11:26:27;;;;;;;5.95;1.10;;;;;;;;;;5086524;28;20043;-65
2023/02/13 11:29:16;;;;;;;3.40;1.20;;;;;;;;;;5053846;28;20511;-65
2023/02/13 11:31:46;;;;;;;15.05;1.20;;;;;;;;;;5087696;28;20043;-66
2023/02/13 11:34:25;;;;;;;5.63;1.27;;;;;;;;;;5087885;28;20147;-65
2023/02/13 11:37:14;;;;;;;2.10;0.90;;;;;;;;;;5007613;28;20063;-65
2023/02/13 11:39:46;;;;;;;2.60;1.70;;;;;;;;;;4995197;28;20617;-65
2023/02/13 11:42:24;;;;;;;5.22;1.55;;;;;;;;;;4969962;28;20057;-65
2023/02/13 11:45:19;;;;;;;2.75;1.13;;;;;;;;;;5047989;28;20053;-65
2023/02/13 11:47:49;;;;;;;3.65;0.80;;;;;;;;;;5047534;28;20060;-65
2023/02/13 11:50:28;;;;;;;1.70;0.75;;;;;;;;;;5047832;28;20052;-66
2023/02/13 11:53:03;;;;;;;3.17;1.60;;;;;;;;;;5048163;28;20448;-65
2023/02/13 11:55:38;;;;;;;4.45;1.13;;;;;;;;;;5031215;28;20152;-66
2023/02/13 11:58:10;;;;;;;1.40;0.80;;;;;;;;;;5047366;28;20071;-66
2023/02/13 12:00:41;;;;;;;2.17;0.90;;;;;;;;;;5031002;28;20053;-65
2023/02/13 12:03:31;;;;;;;1.83;1.00;;;;;;;;;;5014461;28;20056;-65
2023/02/13 12:06:14;;;;;;;4.20;1.30;;;;;;;;;;5031419;28;20489;-65
2023/02/13 12:08:47;;;;;;;2.63;1.20;;;;;;;;;;5047954;28;20061;-66
2023/02/13 12:11:28;;;;;;;2.70;1.25;;;;;;;;;;5014860;28;20060;-65
2023/02/13 12:13:59;;;;;;;3.95;0.90;;;;;;;;;;5007960;28;20056;-65
2023/02/13 12:16:49;;;;;;;1.60;0.90;;;;;;;;;;5015186;28;20065;-65
2023/02/13 12:19:29;;;;;;;2.45;1.00;;;;;;;;;;5067345;28;20079;-66
2023/02/13 12:22:28;;;;;;;1.80;0.90;;;;;;;;;;5035281;28;20045;-65
2023/02/13 12:25:30;;;;;;;2.35;0.88;;;;;;;;;;5071389;28;20172;-65
2023/02/13 12:28:13;;;;;;;3.00;1.45;;;;;;;;;;4995272;28;20465;-66
2023/02/13 12:30:57;;;;;;;1.92;0.93;;;;;;;;;;4977640;28;20058;-66
2023/02/13 12:33:55;;;;;;;5.45;0.90;;;;;;;;;;4979504;28;20050;-66
2023/02/13 12:36:43;;;;;;;1.70;0.82;;;;;;;;;;5011463;28;20054;-66
2023/02/13 12:39:36;;;;;;;1.85;0.77;;;;;;;;;;5008558;28;20053;-67
2023/02/13 12:42:20;;;;;;;2.25;0.98;;;;;;;;;;4978725;28;20521;-66
2023/02/13 12:44:53;;;;;;;2.63;0.80;;;;;;;;;;5011225;28;20057;-66
2023/02/13 12:47:30;;;;;;;3.75;1.20;;;;;;;;;;4995452;28;20179;-66
2023/02/13 12:50:24;;;;;;;2.15;0.98;;;;;;;;;;4989173;28;20050;-66
2023/02/13 12:53:14;;;;;;;2.70;0.80;;;;;;;;;;5011280;28;20058;-66
2023/02/13 12:56:07;;;;;;;2.35;0.80;;;;;;;;;;4992629;28;20761;-66
2023/02/13 12:59:00;;;;;;;2.08;0.70;;;;;;;;;;5010844;28;20070;-64
2023/02/13 13:01:42;;;;;;;1.95;0.70;;;;;;;;;;5006009;28;20057;-63
2023/02/13 13:04:36;;;;;;;1.08;0.50;;;;;;;;;;4996438;28;20486;-64
2023/02/13 13:07:12;;;;;;;1.90;0.50;;;;;;;;;;5079874;28;20186;-67
2023/02/13 13:10:03;;;;;;;1.17;0.50;;;;;;;;;;5071288;28;20059;-65
2023/02/13 13:12:49;;;;;;;1.15;0.55;;;;;;;;;;5072236;28;20041;-65
2023/02/13 13:15:25;;;;;;;0.80;0.43;;;;;;;;;;5053608;28;20060;-66
2023/02/13 13:18:11;;;;;;;1.23;0.50;;;;;;;;;;5037407;28;20049;-65
2023/02/13 13:21:21;;;;;;;1.73;0.60;;;;;;;;;;5053114;28;20568;-65
2023/02/13 13:24:03;;;;;;;0.88;0.50;;;;;;;;;;5069086;28;20515;-65
2023/02/13 13:26:36;;;;;;;2.38;0.50;;;;;;;;;;5021305;28;20071;-65
2023/02/13 13:29:29;;;;;;;0.60;0.40;;;;;;;;;;5040341;28;20048;-65
2023/02/13 13:32:06;;;;;;;3.03;1.10;;;;;;;;;;5049473;28;20604;-65
2023/02/13 13:34:39;;;;;;;2.72;0.50;;;;;;;;;;5048323;28;20060;-66
2023/02/13 13:37:21;;;;;;;1.20;0.65;;;;;;;;;;5016205;28;20052;-65
2023/02/13 13:40:03;;;;;;;1.40;0.55;;;;;;;;;;5029275;28;20486;-67
2023/02/13 13:42:55;;;;;;;3.60;0.70;;;;;;;;;;4992925;28;20176;-67
2023/02/13 13:45:40;;;;;;;1.23;0.50;;;;;;;;;;5009880;28;20048;-66
2023/02/13 13:48:31;;;;;;;1.17;0.50;;;;;;;;;;5010236;28;20071;-66
2023/02/13 13:51:01;;;;;;;1.13;0.50;;;;;;;;;;5010129;28;20053;-66
2023/02/13 13:53:31;;;;;;;1.02;0.50;;;;;;;;;;5010341;28;20482;-66
2023/02/13 13:56:05;;;;;;;3.20;0.65;;;;;;;;;;5010030;28;20053;-67
2023/02/13 13:58:44;;;;;;;3.88;0.45;;;;;;;;;;4991869;28;20050;-67
2023/02/13 14:01:16;;;;;;;1.60;0.60;;;;;;;;;;4989786;28;20061;-66
2023/02/13 14:03:49;;;;;;;1.42;0.60;;;;;;;;;;4991896;28;20065;-66
2023/02/13 14:06:39;;;;;;;1.85;0.43;;;;;;;;;;4990639;28;20065;-66
2023/02/13 14:09:40;;;;;;;2.83;0.60;;;;;;;;;;5002780;28;20509;-69
2023/02/13 14:12:43;;;;;;;4.50;0.70;;;;;;;;;;5001439;28;20048;-65
2023/02/13 14:15:48;;;;;;;2.50;0.77;;;;;;;;;;5040908;28;20154;-67
2023/02/13 14:18:20;;;;;;;1.90;0.80;;;;;;;;;;5009891;28;20050;-64
2023/02/13 14:20:57;;;;;;;2.17;1.15;;;;;;;;;;5024221;28;20405;-66
2023/02/13 14:23:37;;;;;;;1.25;0.57;;;;;;;;;;5029192;28;20060;-66
2023/02/13 14:26:15;;;;;;;0.93;0.50;;;;;;;;;;5008584;28;20042;-66
2023/02/13 14:28:50;;;;;;;1.60;0.60;;;;;;;;;;5030854;28;20060;-67
2023/02/13 14:31:39;;;;;;;1.33;0.60;;;;;;;;;;5051185;28;20057;-66
2023/02/13 14:34:13;;;;;;;2.15;0.40;;;;;;;;;;5048906;28;20056;-66
2023/02/13 14:37:04;;;;;;;1.98;0.50;;;;;;;;;;5049146;28;20060;-66
2023/02/13 14:39:35;;;;;;;1.55;0.50;;;;;;;;;;5048881;28;20047;-67
2023/02/13 14:42:26;;;;;;;0.80;0.50;;;;;;;;;;5023846;28;20056;-66
2023/02/13 14:44:58;;;;;;;2.00;0.40;;;;;;;;;;5032746;28;20056;-66
2023/02/13 14:47:39;;;;;;;1.25;0.20;;;;;;;;;;5068145;28;20522;-66
2023/02/13 14:50:19;;;;;;;1.45;0.50;;;;;;;;;;5043040;28;20045;-66
2023/02/13 14:52:50;;;;;;;1.23;0.50;;;;;;;;;;4982563;28;20061;-65
2023/02/13 14:55:28;;;;;;;0.98;0.50;;;;;;;;;;5062385;28;20060;-62
2023/02/13 14:58:24;;;;;;;2.00;0.43;;;;;;;;;;5091066;28;20400;-66
2023/02/13 15:00:57;;;;;;;2.85;0.50;;;;;;;;;;5091447;28;20036;-64
2023/02/13 15:03:53;;;;;;;1.50;0.50;;;;;;;;;;5072609;28;20545;-65
2023/02/13 15:06:33;;;;;;;1.17;0.40;;;;;;;;;;5072130;28;20059;-65
2023/02/13 15:09:13;;;;;;;1.05;0.40;;;;;;;;;;5091264;28;20047;-65
2023/02/13 15:11:44;;;;;;;1.15;0.60;;;;;;;;;;5067865;28;20049;-65
2023/02/13 15:14:35;;;;;;;3.00;0.40;;;;;;;;;;5068692;28;20067;-66
2023/02/13 15:17:22;;;;;;;1.95;0.40;;;;;;;;;;5067787;28;20217;-65
2023/02/13 15:19:55;;;;;;;1.77;0.30;;;;;;;;;;5066225;28;20400;-65
2023/02/13 15:22:38;;;;;;;1.77;0.40;;;;;;;;;;5017151;28;20052;-64
2023/02/13 15:25:21;;;;;;;0.40;0.30;;;;;;;;;;5066965;28;20528;-65
2023/02/13 15:27:54;;;;;;;1.60;0.30;;;;;;;;;;5035774;28;20048;-66
2023/02/13 15:30:27;;;;;;;0.93;0.47;;;;;;;;;;5051166;28;20195;-65
2023/02/13 15:33:13;;;;;;;1.23;0.50;;;;;;;;;;5067794;28;20079;-64
2023/02/13 15:35:44;;;;;;;2.88;0.50;;;;;;;;;;5050078;28;20053;-64
2023/02/13 15:38:37;;;;;;;0.30;0.20;;;;;;;;;;5033989;28;20049;-65
2023/02/13 15:41:31;;;;;;;0.52;0.22;;;;;;;;;;5033883;28;20056;-65
2023/02/13 15:44:02;;;;;;;0.30;0.20;;;;;;;;;;5034153;28;20056;-64
2023/02/13 15:46:35;;;;;;;0.55;0.30;;;;;;;;;;5034580;28;20056;-65
2023/02/13 15:49:09;;;;;;;0.55;0.32;;;;;;;;;;5042233;28;20051;-66
2023/02/13 15:51:39;;;;;;;0.60;0.20;;;;;;;;;;5054859;28;20056;-66
2023/02/13 15:54:27;;;;;;;0.50;0.30;;;;;;;;;;5090822;28;20060;-66
2023/02/13 15:57:01;;;;;;;0.88;0.40;;;;;;;;;;5091622;28;20051;-66
2023/02/13 15:59:35;;;;;;;0.17;0.15;;;;;;;;;;5095145;28;20106;-65
2023/02/13 16:02:17;;;;;;;0.82;0.30;;;;;;;;;;5094915;28;20071;-65
2023/02/13 16:04:51;;;;;;;0.50;0.43;;;;;;;;;;5060160;28;20045;-65
2023/02/13 16:07:21;;;;;;;1.02;0.32;;;;;;;;;;5092055;28;20070;-65
2023/02/13 16:09:52;;;;;;;0.35;0.32;;;;;;;;;;5092101;28;20059;-65
2023/02/13 16:12:27;;;;;;;0.45;0.20;;;;;;;;;;5075532;28;20206;-66
2023/02/13 16:15:03;;;;;;;0.85;0.30;;;;;;;;;;5092100;28;20056;-65
2023/02/13 16:17:38;;;;;;;0.65;0.30;;;;;;;;;;5092244;28;20066;-65
2023/02/13 16:20:11;;;;;;;0.52;0.30;;;;;;;;;;5091919;28;20044;-66
2023/02/13 16:22:56;;;;;;;0.68;0.50;;;;;;;;;;5091903;28;20190;-68
2023/02/13 16:25:32;;;;;;;0.20;0.20;;;;;;;;;;5021405;28;20056;-66
2023/02/13 16:28:13;;;;;;;0.20;0.20;;;;;;;;;;5071417;28;20057;-65
2023/02/13 16:30:46;;;;;;;9.43;1.08;;;;;;;;;;5053751;28;20049;-65